sensor_id;sensor_type;location;lat;lon;timestamp;P1;durP1;ratioP1;P2;durP2;ratioP2
14030;SDS011;7090;49.436;8.490;2023-04-15T00:01:22;9.90;;;9.50;;
14030;SDS011;7090;49.436;8.490;2023-04-15T00:03:49;9.50;;;9.10;;
14030;SDS011;7090;49.436;8.490;2023-04-15T00:06:16;9.70;;;9.30;;
14030;SDS011;7090;49.436;8.490;2023-04-15T00:08:43;9.93;;;9.53;;
14030;SDS011;7090;49.436;8.490;2023-04-15T00:11:12;10.10;;;9.70;;
14030;SDS011;7090;49.436;8.490;2023-04-15T00:13:38;10.83;;;10.10;;
14030;SDS011;7090;49.436;8.490;2023-04-15T00:16:05;10.50;;;10.00;;
14030;SDS011;7090;49.436;8.490;2023-04-15T00:18:32;10.27;;;9.77;;
14030;SDS011;7090;49.436;8.490;2023-04-15T00:20:58;10.33;;;9.63;;
14030;SDS011;7090;49.436;8.490;2023-04-15T00:23:24;9.30;;;8.90;;
14030;SDS011;7090;49.436;8.490;2023-04-15T00:25:50;9.53;;;9.03;;
14030;SDS011;7090;49.436;8.490;2023-04-15T00:28:16;9.10;;;8.70;;
14030;SDS011;7090;49.436;8.490;2023-04-15T00:30:42;8.47;;;8.17;;
14030;SDS011;7090;49.436;8.490;2023-04-15T00:33:07;8.97;;;8.67;;
14030;SDS011;7090;49.436;8.490;2023-04-15T00:35:34;9.00;;;8.70;;
14030;SDS011;7090;49.436;8.490;2023-04-15T00:38:01;9.50;;;9.10;;
14030;SDS011;7090;49.436;8.490;2023-04-15T00:40:27;9.80;;;9.40;;
14030;SDS011;7090;49.436;8.490;2023-04-15T00:42:52;9.97;;;9.57;;
14030;SDS011;7090;49.436;8.490;2023-04-15T00:45:18;10.30;;;9.90;;
14030;SDS011;7090;49.436;8.490;2023-04-15T00:47:44;11.47;;;11.00;;
14030;SDS011;7090;49.436;8.490;2023-04-15T00:50:10;10.73;;;10.23;;
14030;SDS011;7090;49.436;8.490;2023-04-15T00:52:36;10.87;;;10.47;;
14030;SDS011;7090;49.436;8.490;2023-04-15T00:55:03;9.90;;;9.50;;
14030;SDS011;7090;49.436;8.490;2023-04-15T00:57:29;10.50;;;10.00;;
14030;SDS011;7090;49.436;8.490;2023-04-15T00:59:55;9.93;;;9.53;;
14030;SDS011;7090;49.436;8.490;2023-04-15T01:02:22;10.57;;;10.17;;
14030;SDS011;7090;49.436;8.490;2023-04-15T01:04:48;9.50;;;9.10;;
14030;SDS011;7090;49.436;8.490;2023-04-15T01:07:14;9.77;;;9.37;;
14030;SDS011;7090;49.436;8.490;2023-04-15T01:09:39;9.87;;;9.47;;
14030;SDS011;7090;49.436;8.490;2023-04-15T01:12:06;9.50;;;9.10;;
14030;SDS011;7090;49.436;8.490;2023-04-15T01:14:34;9.53;;;9.13;;
14030;SDS011;7090;49.436;8.490;2023-04-15T01:16:59;9.70;;;9.30;;
14030;SDS011;7090;49.436;8.490;2023-04-15T01:19:26;10.67;;;10.27;;
14030;SDS011;7090;49.436;8.490;2023-04-15T01:21:52;9.40;;;9.00;;
14030;SDS011;7090;49.436;8.490;2023-04-15T01:24:18;9.63;;;9.23;;
14030;SDS011;7090;49.436;8.490;2023-04-15T01:26:45;10.63;;;9.93;;
14030;SDS011;7090;49.436;8.490;2023-04-15T01:29:11;8.80;;;8.50;;
14030;SDS011;7090;49.436;8.490;2023-04-15T01:31:37;7.63;;;7.33;;
14030;SDS011;7090;49.436;8.490;2023-04-15T01:34:02;9.67;;;9.27;;
14030;SDS011;7090;49.436;8.490;2023-04-15T01:36:28;9.67;;;9.07;;
14030;SDS011;7090;49.436;8.490;2023-04-15T01:38:54;9.93;;;9.40;;
14030;SDS011;7090;49.436;8.490;2023-04-15T01:41:25;9.37;;;8.97;;
14030;SDS011;7090;49.436;8.490;2023-04-15T01:43:51;8.10;;;7.80;;
14030;SDS011;7090;49.436;8.490;2023-04-15T01:46:17;9.70;;;9.30;;
14030;SDS011;7090;49.436;8.490;2023-04-15T01:48:42;8.57;;;8.27;;
14030;SDS011;7090;49.436;8.490;2023-04-15T01:51:08;8.67;;;8.37;;
14030;SDS011;7090;49.436;8.490;2023-04-15T01:53:34;9.10;;;8.80;;
14030;SDS011;7090;49.436;8.490;2023-04-15T01:55:59;11.20;;;10.40;;
14030;SDS011;7090;49.436;8.490;2023-04-15T01:58:25;10.07;;;9.67;;
14030;SDS011;7090;49.436;8.490;2023-04-15T02:00:51;9.30;;;9.00;;
14030;SDS011;7090;49.436;8.490;2023-04-15T02:03:16;9.70;;;9.30;;
14030;SDS011;7090;49.436;8.490;2023-04-15T02:05:42;9.80;;;9.40;;
14030;SDS011;7090;49.436;8.490;2023-04-15T02:08:08;9.93;;;9.53;;
14030;SDS011;7090;49.436;8.490;2023-04-15T02:10:33;9.80;;;9.40;;
14030;SDS011;7090;49.436;8.490;2023-04-15T02:12:59;10.77;;;10.27;;
14030;SDS011;7090;49.436;8.490;2023-04-15T02:15:25;9.60;;;9.20;;
14030;SDS011;7090;49.436;8.490;2023-04-15T02:17:51;9.70;;;9.30;;
14030;SDS011;7090;49.436;8.490;2023-04-15T02:20:19;11.43;;;10.93;;
14030;SDS011;7090;49.436;8.490;2023-04-15T02:22:45;9.93;;;9.53;;
14030;SDS011;7090;49.436;8.490;2023-04-15T02:25:12;9.70;;;9.30;;
14030;SDS011;7090;49.436;8.490;2023-04-15T02:27:38;9.23;;;8.83;;
14030;SDS011;7090;49.436;8.490;2023-04-15T02:30:04;9.40;;;9.00;;
14030;SDS011;7090;49.436;8.490;2023-04-15T02:32:31;11.03;;;10.37;;
14030;SDS011;7090;49.436;8.490;2023-04-15T02:35:00;10.03;;;9.53;;
14030;SDS011;7090;49.436;8.490;2023-04-15T02:37:27;9.87;;;9.47;;
14030;SDS011;7090;49.436;8.490;2023-04-15T02:39:54;9.37;;;8.97;;
14030;SDS011;7090;49.436;8.490;2023-04-15T02:42:20;8.83;;;8.53;;
14030;SDS011;7090;49.436;8.490;2023-04-15T02:44:45;8.60;;;8.30;;
14030;SDS011;7090;49.436;8.490;2023-04-15T02:47:11;10.07;;;9.50;;
14030;SDS011;7090;49.436;8.490;2023-04-15T02:49:37;8.50;;;8.20;;
14030;SDS011;7090;49.436;8.490;2023-04-15T02:52:02;9.50;;;9.10;;
14030;SDS011;7090;49.436;8.490;2023-04-15T02:54:28;9.23;;;8.83;;
14030;SDS011;7090;49.436;8.490;2023-04-15T02:56:54;9.40;;;9.00;;
14030;SDS011;7090;49.436;8.490;2023-04-15T02:59:20;9.90;;;9.50;;
14030;SDS011;7090;49.436;8.490;2023-04-15T03:01:46;9.60;;;9.20;;
14030;SDS011;7090;49.436;8.490;2023-04-15T03:04:11;10.23;;;9.83;;
14030;SDS011;7090;49.436;8.490;2023-04-15T03:06:38;10.40;;;10.00;;
14030;SDS011;7090;49.436;8.490;2023-04-15T03:09:03;11.20;;;10.70;;
14030;SDS011;7090;49.436;8.490;2023-04-15T03:11:29;10.43;;;10.03;;
14030;SDS011;7090;49.436;8.490;2023-04-15T03:13:55;8.90;;;8.60;;
14030;SDS011;7090;49.436;8.490;2023-04-15T03:16:21;9.30;;;8.90;;
14030;SDS011;7090;49.436;8.490;2023-04-15T03:18:46;9.90;;;9.50;;
14030;SDS011;7090;49.436;8.490;2023-04-15T03:21:12;9.20;;;8.80;;
14030;SDS011;7090;49.436;8.490;2023-04-15T03:23:37;9.27;;;8.87;;
14030;SDS011;7090;49.436;8.490;2023-04-15T03:26:03;9.37;;;8.97;;
14030;SDS011;7090;49.436;8.490;2023-04-15T03:28:29;9.60;;;9.20;;
14030;SDS011;7090;49.436;8.490;2023-04-15T03:30:56;9.77;;;9.37;;
14030;SDS011;7090;49.436;8.490;2023-04-15T03:33:22;9.50;;;9.10;;
14030;SDS011;7090;49.436;8.490;2023-04-15T03:35:49;10.50;;;10.10;;
14030;SDS011;7090;49.436;8.490;2023-04-15T03:38:15;9.53;;;9.13;;
14030;SDS011;7090;49.436;8.490;2023-04-15T03:40:41;9.70;;;9.30;;
14030;SDS011;7090;49.436;8.490;2023-04-15T03:43:06;10.03;;;9.63;;
14030;SDS011;7090;49.436;8.490;2023-04-15T03:45:32;9.10;;;8.70;;
14030;SDS011;7090;49.436;8.490;2023-04-15T03:47:58;9.60;;;9.20;;
14030;SDS011;7090;49.436;8.490;2023-04-15T03:50:23;9.37;;;8.97;;
14030;SDS011;7090;49.436;8.490;2023-04-15T03:52:49;9.50;;;9.10;;
14030;SDS011;7090;49.436;8.490;2023-04-15T03:55:15;9.17;;;8.77;;
14030;SDS011;7090;49.436;8.490;2023-04-15T03:57:40;9.40;;;9.00;;
14030;SDS011;7090;49.436;8.490;2023-04-15T04:00:06;9.47;;;9.07;;
14030;SDS011;7090;49.436;8.490;2023-04-15T04:02:34;10.03;;;9.63;;
14030;SDS011;7090;49.436;8.490;2023-04-15T04:04:59;8.70;;;8.40;;
14030;SDS011;7090;49.436;8.490;2023-04-15T04:07:25;8.67;;;8.37;;
14030;SDS011;7090;49.436;8.490;2023-04-15T04:09:50;9.37;;;8.97;;
14030;SDS011;7090;49.436;8.490;2023-04-15T04:12:16;9.10;;;8.70;;
14030;SDS011;7090;49.436;8.490;2023-04-15T04:14:41;8.90;;;8.40;;
14030;SDS011;7090;49.436;8.490;2023-04-15T04:17:07;8.10;;;7.80;;
14030;SDS011;7090;49.436;8.490;2023-04-15T04:19:33;8.10;;;7.80;;
14030;SDS011;7090;49.436;8.490;2023-04-15T04:21:58;12.20;;;10.60;;
14030;SDS011;7090;49.436;8.490;2023-04-15T04:24:24;8.37;;;8.07;;
14030;SDS011;7090;49.436;8.490;2023-04-15T04:26:50;8.40;;;8.10;;
14030;SDS011;7090;49.436;8.490;2023-04-15T04:29:16;8.50;;;8.20;;
14030;SDS011;7090;49.436;8.490;2023-04-15T04:31:41;9.43;;;8.93;;
14030;SDS011;7090;49.436;8.490;2023-04-15T04:34:07;8.20;;;7.90;;
14030;SDS011;7090;49.436;8.490;2023-04-15T04:36:32;8.70;;;8.17;;
14030;SDS011;7090;49.436;8.490;2023-04-15T04:38:58;8.80;;;8.30;;
14030;SDS011;7090;49.436;8.490;2023-04-15T04:41:24;12.20;;;10.13;;
14030;SDS011;7090;49.436;8.490;2023-04-15T04:43:49;10.60;;;9.80;;
14030;SDS011;7090;49.436;8.490;2023-04-15T04:46:15;9.43;;;8.63;;
14030;SDS011;7090;49.436;8.490;2023-04-15T04:48:40;8.13;;;7.40;;
14030;SDS011;7090;49.436;8.490;2023-04-15T04:51:06;7.87;;;7.57;;
14030;SDS011;7090;49.436;8.490;2023-04-15T04:53:32;18.23;;;8.90;;
14030;SDS011;7090;49.436;8.490;2023-04-15T04:55:58;5.90;;;5.70;;
14030;SDS011;7090;49.436;8.490;2023-04-15T04:58:23;5.60;;;5.40;;
14030;SDS011;7090;49.436;8.490;2023-04-15T05:00:49;5.80;;;5.60;;
14030;SDS011;7090;49.436;8.490;2023-04-15T05:03:15;5.90;;;5.70;;
14030;SDS011;7090;49.436;8.490;2023-04-15T05:05:40;6.10;;;5.90;;
14030;SDS011;7090;49.436;8.490;2023-04-15T05:08:06;6.20;;;6.00;;
14030;SDS011;7090;49.436;8.490;2023-04-15T05:10:31;6.13;;;5.93;;
14030;SDS011;7090;49.436;8.490;2023-04-15T05:12:57;6.20;;;6.00;;
14030;SDS011;7090;49.436;8.490;2023-04-15T05:15:23;6.40;;;6.20;;
14030;SDS011;7090;49.436;8.490;2023-04-15T05:17:48;7.20;;;6.97;;
14030;SDS011;7090;49.436;8.490;2023-04-15T05:20:14;8.63;;;8.13;;
14030;SDS011;7090;49.436;8.490;2023-04-15T05:22:40;8.07;;;7.77;;
14030;SDS011;7090;49.436;8.490;2023-04-15T05:25:05;6.40;;;6.20;;
14030;SDS011;7090;49.436;8.490;2023-04-15T05:27:31;6.00;;;5.80;;
14030;SDS011;7090;49.436;8.490;2023-04-15T05:29:57;6.20;;;6.00;;
14030;SDS011;7090;49.436;8.490;2023-04-15T05:32:22;6.80;;;6.60;;
14030;SDS011;7090;49.436;8.490;2023-04-15T05:34:48;6.50;;;6.30;;
14030;SDS011;7090;49.436;8.490;2023-04-15T05:37:13;6.40;;;6.20;;
14030;SDS011;7090;49.436;8.490;2023-04-15T05:39:39;7.07;;;6.87;;
14030;SDS011;7090;49.436;8.490;2023-04-15T05:42:05;7.20;;;6.90;;
14030;SDS011;7090;49.436;8.490;2023-04-15T05:44:30;8.17;;;7.87;;
14030;SDS011;7090;49.436;8.490;2023-04-15T05:46:56;8.10;;;7.70;;
14030;SDS011;7090;49.436;8.490;2023-04-15T05:49:22;7.10;;;6.90;;
14030;SDS011;7090;49.436;8.490;2023-04-15T05:51:47;7.40;;;7.10;;
14030;SDS011;7090;49.436;8.490;2023-04-15T05:54:13;8.00;;;7.70;;
14030;SDS011;7090;49.436;8.490;2023-04-15T05:56:39;8.10;;;7.80;;
14030;SDS011;7090;49.436;8.490;2023-04-15T05:59:05;9.17;;;8.77;;
14030;SDS011;7090;49.436;8.490;2023-04-15T06:01:30;8.53;;;8.23;;
14030;SDS011;7090;49.436;8.490;2023-04-15T06:03:58;8.90;;;8.60;;
14030;SDS011;7090;49.436;8.490;2023-04-15T06:06:24;9.30;;;8.90;;
14030;SDS011;7090;49.436;8.490;2023-04-15T06:08:51;8.50;;;8.20;;
14030;SDS011;7090;49.436;8.490;2023-04-15T06:11:17;9.70;;;9.30;;
14030;SDS011;7090;49.436;8.490;2023-04-15T06:13:45;10.17;;;9.77;;
14030;SDS011;7090;49.436;8.490;2023-04-15T06:16:10;11.73;;;11.03;;
14030;SDS011;7090;49.436;8.490;2023-04-15T06:18:36;10.03;;;9.63;;
14030;SDS011;7090;49.436;8.490;2023-04-15T06:21:01;10.50;;;10.10;;
14030;SDS011;7090;49.436;8.490;2023-04-15T06:23:27;11.47;;;10.90;;
14030;SDS011;7090;49.436;8.490;2023-04-15T06:25:53;10.77;;;10.27;;
14030;SDS011;7090;49.436;8.490;2023-04-15T06:28:18;9.10;;;8.80;;
14030;SDS011;7090;49.436;8.490;2023-04-15T06:30:44;9.60;;;9.20;;
14030;SDS011;7090;49.436;8.490;2023-04-15T06:33:09;11.00;;;10.50;;
14030;SDS011;7090;49.436;8.490;2023-04-15T06:35:35;9.60;;;9.20;;
14030;SDS011;7090;49.436;8.490;2023-04-15T06:38:00;9.07;;;8.57;;
14030;SDS011;7090;49.436;8.490;2023-04-15T06:40:26;7.77;;;7.47;;
14030;SDS011;7090;49.436;8.490;2023-04-15T06:42:52;7.60;;;7.30;;
14030;SDS011;7090;49.436;8.490;2023-04-15T06:45:18;7.10;;;6.90;;
14030;SDS011;7090;49.436;8.490;2023-04-15T06:47:43;8.00;;;7.63;;
14030;SDS011;7090;49.436;8.490;2023-04-15T06:50:09;7.70;;;7.40;;
14030;SDS011;7090;49.436;8.490;2023-04-15T06:52:35;7.57;;;7.27;;
14030;SDS011;7090;49.436;8.490;2023-04-15T06:55:01;7.25;;;6.95;;
14030;SDS011;7090;49.436;8.490;2023-04-15T06:57:26;7.00;;;6.70;;
14030;SDS011;7090;49.436;8.490;2023-04-15T06:59:52;7.77;;;7.47;;
14030;SDS011;7090;49.436;8.490;2023-04-15T07:05:40;6.10;;;5.90;;
14030;SDS011;7090;49.436;8.490;2023-04-15T07:08:06;7.40;;;7.07;;
14030;SDS011;7090;49.436;8.490;2023-04-15T07:10:34;6.47;;;6.17;;
14030;SDS011;7090;49.436;8.490;2023-04-15T07:13:00;8.40;;;7.87;;
14030;SDS011;7090;49.436;8.490;2023-04-15T07:15:25;5.87;;;5.67;;
14030;SDS011;7090;49.436;8.490;2023-04-15T07:17:51;6.50;;;6.10;;
14030;SDS011;7090;49.436;8.490;2023-04-15T07:20:16;6.20;;;6.00;;
14030;SDS011;7090;49.436;8.490;2023-04-15T07:22:42;7.53;;;7.03;;
14030;SDS011;7090;49.436;8.490;2023-04-15T07:25:08;5.80;;;5.60;;
14030;SDS011;7090;49.436;8.490;2023-04-15T07:27:33;6.17;;;5.97;;
14030;SDS011;7090;49.436;8.490;2023-04-15T07:29:59;6.23;;;6.03;;
14030;SDS011;7090;49.436;8.490;2023-04-15T07:32:24;6.27;;;6.07;;
14030;SDS011;7090;49.436;8.490;2023-04-15T07:34:50;7.33;;;6.77;;
14030;SDS011;7090;49.436;8.490;2023-04-15T07:37:16;7.27;;;6.97;;
14030;SDS011;7090;49.436;8.490;2023-04-15T07:39:41;8.07;;;7.70;;
14030;SDS011;7090;49.436;8.490;2023-04-15T07:42:07;7.28;;;6.97;;
14030;SDS011;7090;49.436;8.490;2023-04-15T07:44:34;6.90;;;6.60;;
14030;SDS011;7090;49.436;8.490;2023-04-15T07:47:00;7.07;;;6.80;;
14030;SDS011;7090;49.436;8.490;2023-04-15T07:49:26;8.50;;;7.93;;
14030;SDS011;7090;49.436;8.490;2023-04-15T07:51:52;7.63;;;7.10;;
14030;SDS011;7090;49.436;8.490;2023-04-15T07:54:18;6.77;;;6.57;;
14030;SDS011;7090;49.436;8.490;2023-04-15T07:56:43;6.32;;;6.13;;
14030;SDS011;7090;49.436;8.490;2023-04-15T07:59:09;7.00;;;6.70;;
14030;SDS011;7090;49.436;8.490;2023-04-15T08:01:35;6.95;;;6.75;;
14030;SDS011;7090;49.436;8.490;2023-04-15T08:04:01;7.43;;;7.13;;
14030;SDS011;7090;49.436;8.490;2023-04-15T08:06:27;7.20;;;6.90;;
14030;SDS011;7090;49.436;8.490;2023-04-15T08:08:53;7.70;;;7.40;;
14030;SDS011;7090;49.436;8.490;2023-04-15T08:11:19;7.43;;;7.13;;
14030;SDS011;7090;49.436;8.490;2023-04-15T08:13:45;8.40;;;8.02;;
14030;SDS011;7090;49.436;8.490;2023-04-15T08:16:24;7.57;;;7.28;;
14030;SDS011;7090;49.436;8.490;2023-04-15T08:18:55;8.80;;;8.25;;
14030;SDS011;7090;49.436;8.490;2023-04-15T08:21:21;7.50;;;7.20;;
14030;SDS011;7090;49.436;8.490;2023-04-15T08:23:48;8.93;;;8.35;;
14030;SDS011;7090;49.436;8.490;2023-04-15T08:26:14;8.02;;;7.63;;
14030;SDS011;7090;49.436;8.490;2023-04-15T08:28:40;8.75;;;8.35;;
14030;SDS011;7090;49.436;8.490;2023-04-15T08:31:07;7.90;;;7.60;;
14030;SDS011;7090;49.436;8.490;2023-04-15T08:33:33;7.70;;;7.40;;
14030;SDS011;7090;49.436;8.490;2023-04-15T08:35:59;8.25;;;7.95;;
14030;SDS011;7090;49.436;8.490;2023-04-15T08:38:24;8.07;;;7.78;;
14030;SDS011;7090;49.436;8.490;2023-04-15T08:40:50;9.85;;;9.20;;
14030;SDS011;7090;49.436;8.490;2023-04-15T08:43:20;8.68;;;8.27;;
14030;SDS011;7090;49.436;8.490;2023-04-15T08:45:51;8.07;;;7.78;;
14030;SDS011;7090;49.436;8.490;2023-04-15T08:48:18;8.50;;;8.10;;
14030;SDS011;7090;49.436;8.490;2023-04-15T08:50:44;8.00;;;7.70;;
14030;SDS011;7090;49.436;8.490;2023-04-15T08:53:10;10.18;;;9.63;;
14030;SDS011;7090;49.436;8.490;2023-04-15T08:55:38;9.07;;;8.57;;
14030;SDS011;7090;49.436;8.490;2023-04-15T08:58:08;8.10;;;7.80;;
14030;SDS011;7090;49.436;8.490;2023-04-15T09:00:35;7.50;;;7.20;;
14030;SDS011;7090;49.436;8.490;2023-04-15T09:03:03;8.43;;;8.13;;
14030;SDS011;7090;49.436;8.490;2023-04-15T09:05:39;9.13;;;8.73;;
14030;SDS011;7090;49.436;8.490;2023-04-15T09:08:05;8.23;;;7.93;;
14030;SDS011;7090;49.436;8.490;2023-04-15T09:10:31;8.43;;;8.10;;
14030;SDS011;7090;49.436;8.490;2023-04-15T09:12:57;8.40;;;8.10;;
14030;SDS011;7090;49.436;8.490;2023-04-15T09:15:26;8.43;;;8.02;;
14030;SDS011;7090;49.436;8.490;2023-04-15T09:17:54;8.77;;;8.35;;
14030;SDS011;7090;49.436;8.490;2023-04-15T09:20:20;9.48;;;9.07;;
14030;SDS011;7090;49.436;8.490;2023-04-15T09:22:46;9.18;;;8.68;;
14030;SDS011;7090;49.436;8.490;2023-04-15T09:27:54;8.95;;;8.55;;
14030;SDS011;7090;49.436;8.490;2023-04-15T09:30:22;9.65;;;9.18;;
14030;SDS011;7090;49.436;8.490;2023-04-15T09:32:51;9.45;;;8.90;;
14030;SDS011;7090;49.436;8.490;2023-04-15T09:35:18;8.43;;;8.13;;
14030;SDS011;7090;49.436;8.490;2023-04-15T09:37:46;10.07;;;9.48;;
14030;SDS011;7090;49.436;8.490;2023-04-15T09:40:12;12.95;;;9.65;;
14030;SDS011;7090;49.436;8.490;2023-04-15T09:42:54;8.20;;;7.82;;
14030;SDS011;7090;49.436;8.490;2023-04-15T09:45:20;7.82;;;7.53;;
14030;SDS011;7090;49.436;8.490;2023-04-15T09:47:46;9.35;;;8.85;;
14030;SDS011;7090;49.436;8.490;2023-04-15T09:50:12;8.90;;;8.50;;
14030;SDS011;7090;49.436;8.490;2023-04-15T09:52:42;8.65;;;8.35;;
14030;SDS011;7090;49.436;8.490;2023-04-15T09:55:08;8.98;;;8.57;;
14030;SDS011;7090;49.436;8.490;2023-04-15T09:57:34;8.25;;;7.95;;
14030;SDS011;7090;49.436;8.490;2023-04-15T10:00:04;9.18;;;8.60;;
14030;SDS011;7090;49.436;8.490;2023-04-15T10:02:32;8.77;;;8.40;;
14030;SDS011;7090;49.436;8.490;2023-04-15T10:04:58;16.15;;;8.30;;
14030;SDS011;7090;49.436;8.490;2023-04-15T10:07:24;8.10;;;7.80;;
14030;SDS011;7090;49.436;8.490;2023-04-15T10:09:51;8.80;;;8.40;;
14030;SDS011;7090;49.436;8.490;2023-04-15T10:12:17;8.77;;;8.38;;
14030;SDS011;7090;49.436;8.490;2023-04-15T10:14:43;9.52;;;8.93;;
14030;SDS011;7090;49.436;8.490;2023-04-15T10:17:12;8.52;;;8.18;;
14030;SDS011;7090;49.436;8.490;2023-04-15T10:19:41;9.00;;;8.60;;
14030;SDS011;7090;49.436;8.490;2023-04-15T10:22:08;8.93;;;8.63;;
14030;SDS011;7090;49.436;8.490;2023-04-15T10:24:34;9.20;;;8.80;;
14030;SDS011;7090;49.436;8.490;2023-04-15T10:27:02;8.32;;;8.02;;
14030;SDS011;7090;49.436;8.490;2023-04-15T10:29:29;8.93;;;8.52;;
14030;SDS011;7090;49.436;8.490;2023-04-15T10:31:55;8.93;;;8.52;;
14030;SDS011;7090;49.436;8.490;2023-04-15T10:34:23;9.57;;;9.18;;
14030;SDS011;7090;49.436;8.490;2023-04-15T10:36:50;8.50;;;8.20;;
14030;SDS011;7090;49.436;8.490;2023-04-15T10:42:07;9.70;;;9.30;;
14030;SDS011;7090;49.436;8.490;2023-04-15T10:44:44;9.43;;;9.02;;
14030;SDS011;7090;49.436;8.490;2023-04-15T10:47:14;9.75;;;9.27;;
14030;SDS011;7090;49.436;8.490;2023-04-15T10:49:45;9.82;;;9.43;;
14030;SDS011;7090;49.436;8.490;2023-04-15T10:52:13;9.82;;;9.43;;
14030;SDS011;7090;49.436;8.490;2023-04-15T10:54:40;9.82;;;9.32;;
14030;SDS011;7090;49.436;8.490;2023-04-15T10:57:07;10.18;;;8.80;;
14030;SDS011;7090;49.436;8.490;2023-04-15T10:59:58;9.40;;;9.00;;
14030;SDS011;7090;49.436;8.490;2023-04-15T11:02:43;9.00;;;8.60;;
14030;SDS011;7090;49.436;8.490;2023-04-15T11:05:17;9.40;;;8.95;;
14030;SDS011;7090;49.436;8.490;2023-04-15T11:12:51;8.60;;;8.30;;
14030;SDS011;7090;49.436;8.490;2023-04-15T11:15:28;9.95;;;9.40;;
14030;SDS011;7090;49.436;8.490;2023-04-15T11:20:43;9.27;;;8.88;;
14030;SDS011;7090;49.436;8.490;2023-04-15T11:23:09;8.80;;;8.50;;
14030;SDS011;7090;49.436;8.490;2023-04-15T11:25:35;9.75;;;9.25;;
14030;SDS011;7090;49.436;8.490;2023-04-15T11:28:02;9.80;;;9.20;;
14030;SDS011;7090;49.436;8.490;2023-04-15T11:30:30;9.30;;;8.90;;
14030;SDS011;7090;49.436;8.490;2023-04-15T11:32:58;9.20;;;8.90;;
14030;SDS011;7090;49.436;8.490;2023-04-15T11:35:25;9.73;;;8.80;;
14030;SDS011;7090;49.436;8.490;2023-04-15T11:37:52;8.73;;;8.38;;
14030;SDS011;7090;49.436;8.490;2023-04-15T11:40:22;9.13;;;8.73;;
14030;SDS011;7090;49.436;8.490;2023-04-15T11:43:04;8.77;;;8.47;;
14030;SDS011;7090;49.436;8.490;2023-04-15T11:45:33;9.10;;;8.70;;
14030;SDS011;7090;49.436;8.490;2023-04-15T11:50:32;9.35;;;8.95;;
14030;SDS011;7090;49.436;8.490;2023-04-15T11:52:59;8.55;;;8.25;;
14030;SDS011;7090;49.436;8.490;2023-04-15T11:55:27;9.43;;;9.02;;
14030;SDS011;7090;49.436;8.490;2023-04-15T11:58:07;9.40;;;9.00;;
14030;SDS011;7090;49.436;8.490;2023-04-15T12:00:33;9.40;;;8.90;;
14030;SDS011;7090;49.436;8.490;2023-04-15T12:08:46;9.23;;;8.82;;
14030;SDS011;7090;49.436;8.490;2023-04-15T12:11:19;8.55;;;8.25;;
14030;SDS011;7090;49.436;8.490;2023-04-15T12:13:52;8.80;;;8.40;;
14030;SDS011;7090;49.436;8.490;2023-04-15T12:16:19;9.35;;;8.95;;
14030;SDS011;7090;49.436;8.490;2023-04-15T12:18:46;8.70;;;8.40;;
14030;SDS011;7090;49.436;8.490;2023-04-15T12:21:17;9.30;;;8.90;;
14030;SDS011;7090;49.436;8.490;2023-04-15T12:23:56;9.00;;;8.60;;
14030;SDS011;7090;49.436;8.490;2023-04-15T12:26:31;9.50;;;9.10;;
14030;SDS011;7090;49.436;8.490;2023-04-15T12:29:03;9.82;;;9.35;;
14030;SDS011;7090;49.436;8.490;2023-04-15T12:31:31;10.35;;;9.85;;
14030;SDS011;7090;49.436;8.490;2023-04-15T12:33:57;9.70;;;9.30;;
14030;SDS011;7090;49.436;8.490;2023-04-15T12:36:25;10.07;;;9.57;;
14030;SDS011;7090;49.436;8.490;2023-04-15T12:38:51;10.15;;;9.73;;
14030;SDS011;7090;49.436;8.490;2023-04-15T12:41:17;9.10;;;8.70;;
14030;SDS011;7090;49.436;8.490;2023-04-15T12:43:44;9.60;;;9.20;;
14030;SDS011;7090;49.436;8.490;2023-04-15T12:46:10;9.60;;;9.00;;
14030;SDS011;7090;49.436;8.490;2023-04-15T12:48:36;9.75;;;9.35;;
14030;SDS011;7090;49.436;8.490;2023-04-15T12:51:01;9.75;;;9.23;;
14030;SDS011;7090;49.436;8.490;2023-04-15T12:53:27;10.20;;;9.70;;
14030;SDS011;7090;49.436;8.490;2023-04-15T12:55:53;9.52;;;9.13;;
14030;SDS011;7090;49.436;8.490;2023-04-15T12:58:18;9.40;;;9.00;;
14030;SDS011;7090;49.436;8.490;2023-04-15T13:00:45;9.40;;;9.00;;
14030;SDS011;7090;49.436;8.490;2023-04-15T13:03:11;9.40;;;9.00;;
14030;SDS011;7090;49.436;8.490;2023-04-15T13:05:37;9.45;;;8.98;;
14030;SDS011;7090;49.436;8.490;2023-04-15T13:08:03;9.40;;;9.00;;
14030;SDS011;7090;49.436;8.490;2023-04-15T13:10:29;9.57;;;9.18;;
14030;SDS011;7090;49.436;8.490;2023-04-15T13:12:56;9.30;;;8.98;;
14030;SDS011;7090;49.436;8.490;2023-04-15T13:15:22;9.77;;;9.38;;
14030;SDS011;7090;49.436;8.490;2023-04-15T13:17:48;10.00;;;9.50;;
14030;SDS011;7090;49.436;8.490;2023-04-15T13:20:13;9.43;;;9.02;;
14030;SDS011;7090;49.436;8.490;2023-04-15T13:22:39;9.80;;;9.40;;
14030;SDS011;7090;49.436;8.490;2023-04-15T13:25:05;9.88;;;9.48;;
14030;SDS011;7090;49.436;8.490;2023-04-15T13:27:31;10.20;;;9.80;;
14030;SDS011;7090;49.436;8.490;2023-04-15T13:29:57;9.80;;;9.40;;
14030;SDS011;7090;49.436;8.490;2023-04-15T13:32:23;10.00;;;9.60;;
14030;SDS011;7090;49.436;8.490;2023-04-15T13:34:49;9.70;;;9.30;;
14030;SDS011;7090;49.436;8.490;2023-04-15T13:37:15;9.80;;;9.30;;
14030;SDS011;7090;49.436;8.490;2023-04-15T13:39:41;9.52;;;9.13;;
14030;SDS011;7090;49.436;8.490;2023-04-15T13:42:06;9.50;;;9.10;;
14030;SDS011;7090;49.436;8.490;2023-04-15T13:44:32;10.23;;;9.82;;
14030;SDS011;7090;49.436;8.490;2023-04-15T13:46:57;9.40;;;9.00;;
14030;SDS011;7090;49.436;8.490;2023-04-15T13:49:23;8.80;;;8.50;;
14030;SDS011;7090;49.436;8.490;2023-04-15T13:51:49;8.40;;;8.10;;
14030;SDS011;7090;49.436;8.490;2023-04-15T13:54:15;8.60;;;8.30;;
14030;SDS011;7090;49.436;8.490;2023-04-15T13:56:41;8.60;;;8.30;;
14030;SDS011;7090;49.436;8.490;2023-04-15T13:59:06;8.90;;;8.60;;
14030;SDS011;7090;49.436;8.490;2023-04-15T14:01:33;8.60;;;8.30;;
14030;SDS011;7090;49.436;8.490;2023-04-15T14:03:58;9.00;;;8.70;;
14030;SDS011;7090;49.436;8.490;2023-04-15T14:06:24;8.85;;;8.40;;
14030;SDS011;7090;49.436;8.490;2023-04-15T14:08:51;8.73;;;8.43;;
14030;SDS011;7090;49.436;8.490;2023-04-15T14:11:16;9.30;;;8.80;;
14030;SDS011;7090;49.436;8.490;2023-04-15T14:13:42;8.60;;;8.30;;
14030;SDS011;7090;49.436;8.490;2023-04-15T14:16:08;8.98;;;8.68;;
14030;SDS011;7090;49.436;8.490;2023-04-15T14:18:34;8.65;;;8.35;;
14030;SDS011;7090;49.436;8.490;2023-04-15T14:21:01;8.90;;;8.50;;
14030;SDS011;7090;49.436;8.490;2023-04-15T14:23:27;8.77;;;8.48;;
14030;SDS011;7090;49.436;8.490;2023-04-15T14:25:53;9.32;;;8.93;;
14030;SDS011;7090;49.436;8.490;2023-04-15T14:28:18;8.95;;;8.65;;
14030;SDS011;7090;49.436;8.490;2023-04-15T14:30:44;8.90;;;8.60;;
14030;SDS011;7090;49.436;8.490;2023-04-15T14:33:10;8.80;;;8.50;;
14030;SDS011;7090;49.436;8.490;2023-04-15T14:35:36;9.02;;;8.63;;
14030;SDS011;7090;49.436;8.490;2023-04-15T14:38:01;8.63;;;8.33;;
14030;SDS011;7090;49.436;8.490;2023-04-15T14:40:27;8.50;;;8.20;;
14030;SDS011;7090;49.436;8.490;2023-04-15T14:42:54;8.03;;;7.73;;
14030;SDS011;7090;49.436;8.490;2023-04-15T14:45:19;8.13;;;7.83;;
14030;SDS011;7090;49.436;8.490;2023-04-15T14:47:45;8.30;;;7.97;;
14030;SDS011;7090;49.436;8.490;2023-04-15T14:50:11;8.57;;;8.17;;
14030;SDS011;7090;49.436;8.490;2023-04-15T14:52:36;7.55;;;7.18;;
14030;SDS011;7090;49.436;8.490;2023-04-15T14:55:04;8.23;;;7.83;;
14030;SDS011;7090;49.436;8.490;2023-04-15T14:57:31;7.80;;;7.50;;
14030;SDS011;7090;49.436;8.490;2023-04-15T14:59:56;7.97;;;7.50;;
14030;SDS011;7090;49.436;8.490;2023-04-15T15:02:23;7.07;;;6.77;;
14030;SDS011;7090;49.436;8.490;2023-04-15T15:04:48;6.87;;;6.60;;
14030;SDS011;7090;49.436;8.490;2023-04-15T15:07:14;7.60;;;7.30;;
14030;SDS011;7090;49.436;8.490;2023-04-15T15:09:40;7.38;;;7.07;;
14030;SDS011;7090;49.436;8.490;2023-04-15T15:12:06;7.63;;;7.17;;
14030;SDS011;7090;49.436;8.490;2023-04-15T15:14:31;6.77;;;6.50;;
14030;SDS011;7090;49.436;8.490;2023-04-15T15:16:57;6.17;;;5.97;;
14030;SDS011;7090;49.436;8.490;2023-04-15T15:19:23;6.20;;;6.00;;